sensor_id;sensor_type;location;lat;lon;timestamp;P1;durP1;ratioP1;P2;durP2;ratioP2
22455;SDS011;11395;53.204;6.502;2022-09-09T00:05:44;2.60;;;2.40;;
22455;SDS011;11395;53.204;6.502;2022-09-09T00:08:50;2.75;;;2.50;;
22455;SDS011;11395;53.204;6.502;2022-09-09T00:11:45;3.83;;;2.60;;
22455;SDS011;11395;53.204;6.502;2022-09-09T00:14:55;2.53;;;2.33;;
22455;SDS011;11395;53.204;6.502;2022-09-09T00:21:08;3.43;;;2.10;;
22455;SDS011;11395;53.204;6.502;2022-09-09T00:23:54;2.40;;;2.17;;
22455;SDS011;11395;53.204;6.502;2022-09-09T00:26:53;4.27;;;2.67;;
22455;SDS011;11395;53.204;6.502;2022-09-09T00:33:12;2.87;;;2.47;;
22455;SDS011;11395;53.204;6.502;2022-09-09T00:35:57;2.97;;;2.30;;
22455;SDS011;11395;53.204;6.502;2022-09-09T00:38:55;2.20;;;2.00;;
22455;SDS011;11395;53.204;6.502;2022-09-09T00:47:38;2.37;;;2.10;;
22455;SDS011;11395;53.204;6.502;2022-09-09T00:56:22;3.37;;;2.60;;
22455;SDS011;11395;53.204;6.502;2022-09-09T00:59:51;2.33;;;2.13;;
22455;SDS011;11395;53.204;6.502;2022-09-09T01:16:34;3.07;;;2.17;;
22455;SDS011;11395;53.204;6.502;2022-09-09T01:19:24;3.20;;;2.37;;
22455;SDS011;11395;53.204;6.502;2022-09-09T01:29:00;2.37;;;2.07;;
22455;SDS011;11395;53.204;6.502;2022-09-09T01:35:48;2.20;;;2.00;;
22455;SDS011;11395;53.204;6.502;2022-09-09T01:38:47;2.33;;;2.13;;
22455;SDS011;11395;53.204;6.502;2022-09-09T01:41:19;2.50;;;2.10;;
22455;SDS011;11395;53.204;6.502;2022-09-09T01:44:19;2.30;;;2.10;;
22455;SDS011;11395;53.204;6.502;2022-09-09T01:47:04;2.43;;;2.23;;
22455;SDS011;11395;53.204;6.502;2022-09-09T01:50:05;2.47;;;2.27;;
22455;SDS011;11395;53.204;6.502;2022-09-09T01:53:23;2.30;;;2.10;;
22455;SDS011;11395;53.204;6.502;2022-09-09T02:09:52;2.20;;;2.00;;
22455;SDS011;11395;53.204;6.502;2022-09-09T02:12:51;1.80;;;1.70;;
22455;SDS011;11395;53.204;6.502;2022-09-09T02:19:14;2.50;;;2.13;;
22455;SDS011;11395;53.204;6.502;2022-09-09T02:22:32;2.50;;;2.30;;
22455;SDS011;11395;53.204;6.502;2022-09-09T02:25:29;2.10;;;1.90;;
22455;SDS011;11395;53.204;6.502;2022-09-09T02:28:21;2.03;;;1.83;;
22455;SDS011;11395;53.204;6.502;2022-09-09T02:31:41;1.90;;;1.80;;
22455;SDS011;11395;53.204;6.502;2022-09-09T02:34:36;1.83;;;1.70;;
22455;SDS011;11395;53.204;6.502;2022-09-09T02:37:29;2.17;;;1.97;;
22455;SDS011;11395;53.204;6.502;2022-09-09T02:40:49;2.20;;;2.10;;
22455;SDS011;11395;53.204;6.502;2022-09-09T02:43:42;1.73;;;1.63;;
22455;SDS011;11395;53.204;6.502;2022-09-09T02:56:34;1.77;;;1.67;;
22455;SDS011;11395;53.204;6.502;2022-09-09T02:59:14;1.90;;;1.80;;
22455;SDS011;11395;53.204;6.502;2022-09-09T03:01:58;2.00;;;1.90;;
22455;SDS011;11395;53.204;6.502;2022-09-09T03:05:09;2.10;;;1.80;;
22455;SDS011;11395;53.204;6.502;2022-09-09T03:07:52;2.43;;;2.23;;
22455;SDS011;11395;53.204;6.502;2022-09-09T03:10:31;2.03;;;1.80;;
22455;SDS011;11395;53.204;6.502;2022-09-09T03:13:23;2.03;;;1.93;;
22455;SDS011;11395;53.204;6.502;2022-09-09T03:16:00;3.07;;;2.10;;
22455;SDS011;11395;53.204;6.502;2022-09-09T03:18:59;1.80;;;1.67;;
22455;SDS011;11395;53.204;6.502;2022-09-09T03:22:12;1.77;;;1.67;;
22455;SDS011;11395;53.204;6.502;2022-09-09T03:25:02;2.10;;;1.90;;
22455;SDS011;11395;53.204;6.502;2022-09-09T03:27:44;2.10;;;1.90;;
22455;SDS011;11395;53.204;6.502;2022-09-09T03:30:36;1.80;;;1.70;;
22455;SDS011;11395;53.204;6.502;2022-09-09T03:33:31;1.83;;;1.73;;
22455;SDS011;11395;53.204;6.502;2022-09-09T03:36:25;1.67;;;1.57;;
22455;SDS011;11395;53.204;6.502;2022-09-09T03:39:30;1.67;;;1.57;;
22455;SDS011;11395;53.204;6.502;2022-09-09T03:42:28;2.20;;;1.90;;
22455;SDS011;11395;53.204;6.502;2022-09-09T03:45:31;2.10;;;2.00;;
22455;SDS011;11395;53.204;6.502;2022-09-09T03:48:11;1.70;;;1.60;;
22455;SDS011;11395;53.204;6.502;2022-09-09T03:50:52;1.87;;;1.77;;
22455;SDS011;11395;53.204;6.502;2022-09-09T03:53:56;1.70;;;1.60;;
22455;SDS011;11395;53.204;6.502;2022-09-09T04:00:18;1.70;;;1.60;;
22455;SDS011;11395;53.204;6.502;2022-09-09T04:03:12;1.80;;;1.70;;
22455;SDS011;11395;53.204;6.502;2022-09-09T04:05:48;1.70;;;1.60;;
22455;SDS011;11395;53.204;6.502;2022-09-09T04:08:14;1.97;;;1.83;;
22455;SDS011;11395;53.204;6.502;2022-09-09T04:10:41;1.83;;;1.73;;
22455;SDS011;11395;53.204;6.502;2022-09-09T04:13:09;1.70;;;1.60;;
22455;SDS011;11395;53.204;6.502;2022-09-09T04:15:38;1.70;;;1.60;;
22455;SDS011;11395;53.204;6.502;2022-09-09T04:18:04;2.00;;;1.70;;
22455;SDS011;11395;53.204;6.502;2022-09-09T04:20:31;1.60;;;1.50;;
22455;SDS011;11395;53.204;6.502;2022-09-09T04:22:58;1.57;;;1.47;;
22455;SDS011;11395;53.204;6.502;2022-09-09T04:25:25;1.57;;;1.47;;
22455;SDS011;11395;53.204;6.502;2022-09-09T04:27:55;1.47;;;1.37;;
22455;SDS011;11395;53.204;6.502;2022-09-09T04:30:22;1.73;;;1.63;;
22455;SDS011;11395;53.204;6.502;2022-09-09T04:32:49;1.67;;;1.57;;
22455;SDS011;11395;53.204;6.502;2022-09-09T04:35:15;1.80;;;1.70;;
22455;SDS011;11395;53.204;6.502;2022-09-09T04:37:42;1.77;;;1.67;;
22455;SDS011;11395;53.204;6.502;2022-09-09T04:40:08;1.73;;;1.63;;
22455;SDS011;11395;53.204;6.502;2022-09-09T04:42:37;1.60;;;1.50;;
22455;SDS011;11395;53.204;6.502;2022-09-09T04:45:05;1.60;;;1.50;;
22455;SDS011;11395;53.204;6.502;2022-09-09T04:47:36;1.73;;;1.63;;
22455;SDS011;11395;53.204;6.502;2022-09-09T04:50:03;3.00;;;1.90;;
22455;SDS011;11395;53.204;6.502;2022-09-09T04:52:30;2.83;;;1.80;;
22455;SDS011;11395;53.204;6.502;2022-09-09T04:54:59;2.03;;;1.83;;
22455;SDS011;11395;53.204;6.502;2022-09-09T04:57:26;3.90;;;2.03;;
22455;SDS011;11395;53.204;6.502;2022-09-09T04:59:52;5.27;;;2.10;;
22455;SDS011;11395;53.204;6.502;2022-09-09T05:02:18;3.33;;;2.53;;
22455;SDS011;11395;53.204;6.502;2022-09-09T05:04:44;5.30;;;2.60;;
22455;SDS011;11395;53.204;6.502;2022-09-09T05:07:11;3.50;;;2.30;;
22455;SDS011;11395;53.204;6.502;2022-09-09T05:09:39;3.90;;;2.80;;
22455;SDS011;11395;53.204;6.502;2022-09-09T05:12:05;3.07;;;2.77;;
22455;SDS011;11395;53.204;6.502;2022-09-09T05:14:35;6.23;;;2.97;;
22455;SDS011;11395;53.204;6.502;2022-09-09T05:17:04;4.43;;;2.80;;
22455;SDS011;11395;53.204;6.502;2022-09-09T05:19:32;6.40;;;2.63;;
22455;SDS011;11395;53.204;6.502;2022-09-09T05:21:59;4.50;;;2.90;;
22455;SDS011;11395;53.204;6.502;2022-09-09T05:24:34;3.63;;;2.70;;
22455;SDS011;11395;53.204;6.502;2022-09-09T05:27:02;3.63;;;2.20;;
22455;SDS011;11395;53.204;6.502;2022-09-09T05:29:28;7.53;;;3.00;;
22455;SDS011;11395;53.204;6.502;2022-09-09T05:31:56;5.87;;;2.63;;
22455;SDS011;11395;53.204;6.502;2022-09-09T05:34:22;5.97;;;2.93;;
22455;SDS011;11395;53.204;6.502;2022-09-09T05:36:49;3.80;;;3.00;;
22455;SDS011;11395;53.204;6.502;2022-09-09T05:39:16;5.30;;;2.90;;
22455;SDS011;11395;53.204;6.502;2022-09-09T05:41:43;4.53;;;2.67;;
22455;SDS011;11395;53.204;6.502;2022-09-09T05:44:09;4.63;;;2.53;;
22455;SDS011;11395;53.204;6.502;2022-09-09T05:46:38;3.17;;;2.53;;
22455;SDS011;11395;53.204;6.502;2022-09-09T05:49:05;3.77;;;2.53;;
22455;SDS011;11395;53.204;6.502;2022-09-09T05:51:32;4.43;;;2.80;;
22455;SDS011;11395;53.204;6.502;2022-09-09T05:54:04;4.57;;;2.70;;
22455;SDS011;11395;53.204;6.502;2022-09-09T05:56:33;5.27;;;2.83;;
22455;SDS011;11395;53.204;6.502;2022-09-09T05:59:01;4.73;;;2.90;;
22455;SDS011;11395;53.204;6.502;2022-09-09T06:01:28;5.40;;;2.60;;
22455;SDS011;11395;53.204;6.502;2022-09-09T06:03:57;5.50;;;3.00;;
22455;SDS011;11395;53.204;6.502;2022-09-09T06:06:25;7.00;;;3.63;;
22455;SDS011;11395;53.204;6.502;2022-09-09T06:08:56;5.30;;;3.13;;
22455;SDS011;11395;53.204;6.502;2022-09-09T06:11:25;5.27;;;3.40;;
22455;SDS011;11395;53.204;6.502;2022-09-09T06:13:53;5.87;;;3.00;;
22455;SDS011;11395;53.204;6.502;2022-09-09T06:16:21;5.20;;;3.40;;
22455;SDS011;11395;53.204;6.502;2022-09-09T06:18:49;5.07;;;2.57;;
22455;SDS011;11395;53.204;6.502;2022-09-09T06:23:47;4.77;;;3.00;;
22455;SDS011;11395;53.204;6.502;2022-09-09T06:26:15;5.20;;;3.10;;
22455;SDS011;11395;53.204;6.502;2022-09-09T06:28:47;5.53;;;2.83;;
22455;SDS011;11395;53.204;6.502;2022-09-09T06:31:16;5.37;;;2.87;;
22455;SDS011;11395;53.204;6.502;2022-09-09T06:33:47;4.67;;;2.80;;
22455;SDS011;11395;53.204;6.502;2022-09-09T06:36:16;5.67;;;2.73;;
22455;SDS011;11395;53.204;6.502;2022-09-09T06:38:44;3.83;;;3.00;;
22455;SDS011;11395;53.204;6.502;2022-09-09T06:41:13;6.57;;;3.10;;
22455;SDS011;11395;53.204;6.502;2022-09-09T06:43:42;7.00;;;3.20;;
22455;SDS011;11395;53.204;6.502;2022-09-09T06:46:14;4.40;;;2.60;;
22455;SDS011;11395;53.204;6.502;2022-09-09T06:48:45;6.60;;;3.40;;
22455;SDS011;11395;53.204;6.502;2022-09-09T06:53:43;5.17;;;3.07;;
22455;SDS011;11395;53.204;6.502;2022-09-09T06:58:48;4.60;;;3.00;;
22455;SDS011;11395;53.204;6.502;2022-09-09T07:01:24;6.40;;;2.47;;
22455;SDS011;11395;53.204;6.502;2022-09-09T07:03:54;6.07;;;3.17;;
22455;SDS011;11395;53.204;6.502;2022-09-09T07:06:22;5.87;;;3.00;;
22455;SDS011;11395;53.204;6.502;2022-09-09T07:11:18;7.33;;;3.43;;
22455;SDS011;11395;53.204;6.502;2022-09-09T07:13:46;6.43;;;2.80;;
22455;SDS011;11395;53.204;6.502;2022-09-09T07:16:15;5.97;;;3.03;;
22455;SDS011;11395;53.204;6.502;2022-09-09T07:18:43;5.13;;;2.90;;
22455;SDS011;11395;53.204;6.502;2022-09-09T07:21:13;4.13;;;2.73;;
22455;SDS011;11395;53.204;6.502;2022-09-09T07:23:40;5.27;;;2.97;;
22455;SDS011;11395;53.204;6.502;2022-09-09T07:26:10;5.07;;;2.90;;
22455;SDS011;11395;53.204;6.502;2022-09-09T07:28:41;5.07;;;3.10;;
22455;SDS011;11395;53.204;6.502;2022-09-09T07:31:27;3.93;;;2.90;;
22455;SDS011;11395;53.204;6.502;2022-09-09T07:33:57;4.20;;;2.67;;
22455;SDS011;11395;53.204;6.502;2022-09-09T07:36:26;5.40;;;2.80;;
22455;SDS011;11395;53.204;6.502;2022-09-09T07:38:55;4.97;;;2.60;;
22455;SDS011;11395;53.204;6.502;2022-09-09T07:41:25;4.03;;;2.80;;
22455;SDS011;11395;53.204;6.502;2022-09-09T07:43:55;4.33;;;2.57;;
22455;SDS011;11395;53.204;6.502;2022-09-09T07:46:23;4.47;;;2.53;;
22455;SDS011;11395;53.204;6.502;2022-09-09T07:48:55;6.23;;;2.73;;
22455;SDS011;11395;53.204;6.502;2022-09-09T07:51:27;3.70;;;2.40;;
22455;SDS011;11395;53.204;6.502;2022-09-09T07:53:57;3.53;;;2.60;;
22455;SDS011;11395;53.204;6.502;2022-09-09T07:56:26;3.33;;;2.23;;
22455;SDS011;11395;53.204;6.502;2022-09-09T07:58:54;6.23;;;2.43;;
22455;SDS011;11395;53.204;6.502;2022-09-09T08:01:24;7.53;;;2.47;;
22455;SDS011;11395;53.204;6.502;2022-09-09T08:03:53;4.17;;;2.57;;
22455;SDS011;11395;53.204;6.502;2022-09-09T08:06:24;6.60;;;3.03;;
22455;SDS011;11395;53.204;6.502;2022-09-09T08:08:53;4.87;;;3.20;;
22455;SDS011;11395;53.204;6.502;2022-09-09T08:11:21;2.30;;;2.10;;
22455;SDS011;11395;53.204;6.502;2022-09-09T08:13:50;5.67;;;2.73;;
22455;SDS011;11395;53.204;6.502;2022-09-09T08:16:18;4.43;;;2.70;;
22455;SDS011;11395;53.204;6.502;2022-09-09T08:18:56;3.83;;;2.37;;
22455;SDS011;11395;53.204;6.502;2022-09-09T08:21:24;3.20;;;2.20;;
22455;SDS011;11395;53.204;6.502;2022-09-09T08:23:55;3.07;;;2.20;;
22455;SDS011;11395;53.204;6.502;2022-09-09T08:26:23;2.50;;;2.13;;
22455;SDS011;11395;53.204;6.502;2022-09-09T08:28:55;5.67;;;2.30;;
22455;SDS011;11395;53.204;6.502;2022-09-09T08:31:31;3.33;;;2.30;;
22455;SDS011;11395;53.204;6.502;2022-09-09T08:34:00;3.07;;;2.40;;
22455;SDS011;11395;53.204;6.502;2022-09-09T08:36:30;4.07;;;2.10;;
22455;SDS011;11395;53.204;6.502;2022-09-09T08:39:01;2.97;;;2.20;;
22455;SDS011;11395;53.204;6.502;2022-09-09T08:49:58;2.90;;;2.40;;
22455;SDS011;11395;53.204;6.502;2022-09-09T08:52:52;3.70;;;2.60;;
22455;SDS011;11395;53.204;6.502;2022-09-09T08:58:11;3.20;;;2.37;;
22455;SDS011;11395;53.204;6.502;2022-09-09T09:00:51;3.17;;;2.10;;
22455;SDS011;11395;53.204;6.502;2022-09-09T09:11:53;5.30;;;2.40;;
22455;SDS011;11395;53.204;6.502;2022-09-09T09:14:29;3.73;;;2.23;;
22455;SDS011;11395;53.204;6.502;2022-09-09T09:17:03;3.43;;;2.00;;
22455;SDS011;11395;53.204;6.502;2022-09-09T09:19:33;3.37;;;2.20;;
22455;SDS011;11395;53.204;6.502;2022-09-09T09:22:14;3.20;;;2.20;;
22455;SDS011;11395;53.204;6.502;2022-09-09T09:24:56;3.30;;;2.30;;
22455;SDS011;11395;53.204;6.502;2022-09-09T09:30:16;3.00;;;1.93;;
22455;SDS011;11395;53.204;6.502;2022-09-09T09:32:51;3.40;;;1.80;;
22455;SDS011;11395;53.204;6.502;2022-09-09T09:35:20;3.73;;;1.97;;
22455;SDS011;11395;53.204;6.502;2022-09-09T09:37:47;3.90;;;2.40;;
22455;SDS011;11395;53.204;6.502;2022-09-09T09:40:17;2.83;;;1.90;;
22455;SDS011;11395;53.204;6.502;2022-09-09T09:42:49;5.17;;;2.53;;
22455;SDS011;11395;53.204;6.502;2022-09-09T09:45:25;2.20;;;2.00;;
22455;SDS011;11395;53.204;6.502;2022-09-09T09:48:00;2.57;;;2.23;;
22455;SDS011;11395;53.204;6.502;2022-09-09T09:50:29;5.93;;;2.33;;
22455;SDS011;11395;53.204;6.502;2022-09-09T09:52:58;3.03;;;2.00;;
22455;SDS011;11395;53.204;6.502;2022-09-09T09:55:30;3.93;;;2.50;;
22455;SDS011;11395;53.204;6.502;2022-09-09T09:58:05;3.60;;;2.40;;
22455;SDS011;11395;53.204;6.502;2022-09-09T10:00:33;3.40;;;2.00;;
22455;SDS011;11395;53.204;6.502;2022-09-09T10:03:19;3.93;;;2.03;;
22455;SDS011;11395;53.204;6.502;2022-09-09T11:18:28;3.97;;;2.33;;
22455;SDS011;11395;53.204;6.502;2022-09-09T11:21:29;5.00;;;2.40;;
22455;SDS011;11395;53.204;6.502;2022-09-09T11:24:23;4.33;;;2.37;;
22455;SDS011;11395;53.204;6.502;2022-09-09T11:43:31;2.43;;;1.90;;
22455;SDS011;11395;53.204;6.502;2022-09-09T11:46:15;2.63;;;2.10;;
22455;SDS011;11395;53.204;6.502;2022-09-09T11:48:59;4.57;;;2.10;;
22455;SDS011;11395;53.204;6.502;2022-09-09T11:51:28;3.77;;;2.03;;
22455;SDS011;11395;53.204;6.502;2022-09-09T12:03:31;3.40;;;2.10;;
22455;SDS011;11395;53.204;6.502;2022-09-09T12:09:06;2.40;;;2.00;;
22455;SDS011;11395;53.204;6.502;2022-09-09T12:11:36;3.70;;;1.80;;
22455;SDS011;11395;53.204;6.502;2022-09-09T12:14:18;2.30;;;1.77;;
22455;SDS011;11395;53.204;6.502;2022-09-09T12:16:46;3.43;;;2.00;;
22455;SDS011;11395;53.204;6.502;2022-09-09T12:19:21;2.77;;;1.80;;
22455;SDS011;11395;53.204;6.502;2022-09-09T12:30:09;3.53;;;1.80;;
22455;SDS011;11395;53.204;6.502;2022-09-09T12:32:39;3.13;;;1.70;;
22455;SDS011;11395;53.204;6.502;2022-09-09T12:47:43;4.50;;;2.17;;
22455;SDS011;11395;53.204;6.502;2022-09-09T12:50:28;4.00;;;1.90;;
22455;SDS011;11395;53.204;6.502;2022-09-09T12:53:08;2.47;;;1.60;;
22455;SDS011;11395;53.204;6.502;2022-09-09T12:55:48;2.70;;;1.80;;
22455;SDS011;11395;53.204;6.502;2022-09-09T12:58:24;3.00;;;2.03;;
22455;SDS011;11395;53.204;6.502;2022-09-09T13:00:52;4.07;;;2.03;;
22455;SDS011;11395;53.204;6.502;2022-09-09T13:03:22;5.00;;;2.00;;
22455;SDS011;11395;53.204;6.502;2022-09-09T13:05:51;2.63;;;1.73;;
22455;SDS011;11395;53.204;6.502;2022-09-09T13:08:28;4.67;;;2.00;;
22455;SDS011;11395;53.204;6.502;2022-09-09T13:17:52;3.40;;;1.70;;
22455;SDS011;11395;53.204;6.502;2022-09-09T13:23:37;1.90;;;1.60;;
22455;SDS011;11395;53.204;6.502;2022-09-09T13:48:09;2.90;;;1.73;;
22455;SDS011;11395;53.204;6.502;2022-09-09T13:50:39;5.67;;;2.13;;
22455;SDS011;11395;53.204;6.502;2022-09-09T13:53:07;3.87;;;1.83;;
22455;SDS011;11395;53.204;6.502;2022-09-09T13:55:34;2.63;;;1.73;;
22455;SDS011;11395;53.204;6.502;2022-09-09T13:58:05;3.80;;;1.77;;
22455;SDS011;11395;53.204;6.502;2022-09-09T14:00:32;4.93;;;2.10;;
22455;SDS011;11395;53.204;6.502;2022-09-09T14:02:59;2.57;;;1.87;;
22455;SDS011;11395;53.204;6.502;2022-09-09T14:05:31;3.63;;;1.40;;
22455;SDS011;11395;53.204;6.502;2022-09-09T14:07:59;2.07;;;1.60;;
22455;SDS011;11395;53.204;6.502;2022-09-09T14:14:16;2.47;;;1.57;;
22455;SDS011;11395;53.204;6.502;2022-09-09T14:17:28;2.17;;;1.30;;
22455;SDS011;11395;53.204;6.502;2022-09-09T14:19:55;1.67;;;1.50;;
22455;SDS011;11395;53.204;6.502;2022-09-09T14:22:22;2.23;;;1.67;;
22455;SDS011;11395;53.204;6.502;2022-09-09T14:24:49;1.93;;;1.73;;
22455;SDS011;11395;53.204;6.502;2022-09-09T14:27:31;3.07;;;1.73;;
22455;SDS011;11395;53.204;6.502;2022-09-09T14:30:12;2.70;;;1.40;;
22455;SDS011;11395;53.204;6.502;2022-09-09T14:33:15;2.17;;;1.47;;
22455;SDS011;11395;53.204;6.502;2022-09-09T14:36:37;1.57;;;1.47;;
22455;SDS011;11395;53.204;6.502;2022-09-09T14:39:04;3.77;;;1.77;;
22455;SDS011;11395;53.204;6.502;2022-09-09T14:41:34;3.83;;;2.00;;
22455;SDS011;11395;53.204;6.502;2022-09-09T14:44:00;2.20;;;1.77;;
22455;SDS011;11395;53.204;6.502;2022-09-09T14:46:33;4.03;;;1.60;;
22455;SDS011;11395;53.204;6.502;2022-09-09T15:08:12;4.93;;;2.13;;
22455;SDS011;11395;53.204;6.502;2022-09-09T15:10:48;12.20;;;6.10;;
22455;SDS011;11395;53.204;6.502;2022-09-09T15:14:08;24.33;;;10.13;;
22455;SDS011;11395;53.204;6.502;2022-09-09T15:16:43;29.27;;;11.63;;
22455;SDS011;11395;53.204;6.502;2022-09-09T15:19:10;30.03;;;12.80;;
22455;SDS011;11395;53.204;6.502;2022-09-09T15:43:28;37.87;;;16.80;;
22455;SDS011;11395;53.204;6.502;2022-09-09T15:48:56;43.93;;;16.53;;
22455;SDS011;11395;53.204;6.502;2022-09-09T15:52:31;29.23;;;13.97;;
22455;SDS011;11395;53.204;6.502;2022-09-09T16:21:18;37.00;;;14.83;;
22455;SDS011;11395;53.204;6.502;2022-09-09T16:24:06;31.23;;;13.87;;
22455;SDS011;11395;53.204;6.502;2022-09-09T16:43:39;30.03;;;13.57;;
22455;SDS011;11395;53.204;6.502;2022-09-09T16:55:57;27.10;;;12.40;;
22455;SDS011;11395;53.204;6.502;2022-09-09T17:06:23;22.50;;;10.57;;
22455;SDS011;11395;53.204;6.502;2022-09-09T17:10:21;22.70;;;10.07;;
22455;SDS011;11395;53.204;6.502;2022-09-09T17:58:13;13.07;;;7.70;;
22455;SDS011;11395;53.204;6.502;2022-09-09T18:23:44;19.13;;;7.60;;
22455;SDS011;11395;53.204;6.502;2022-09-09T18:26:52;10.20;;;6.30;;
22455;SDS011;11395;53.204;6.502;2022-09-09T18:29:24;11.27;;;6.60;;
22455;SDS011;11395;53.204;6.502;2022-09-09T18:31:59;14.17;;;7.20;;
22455;SDS011;11395;53.204;6.502;2022-09-09T18:57:57;9.70;;;5.53;;
22455;SDS011;11395;53.204;6.502;2022-09-09T19:01:34;10.10;;;6.27;;
22455;SDS011;11395;53.204;6.502;2022-09-09T19:05:06;10.77;;;6.00;;
22455;SDS011;11395;53.204;6.502;2022-09-09T19:07:33;13.83;;;6.77;;
22455;SDS011;11395;53.204;6.502;2022-09-09T19:10:08;15.10;;;6.00;;
22455;SDS011;11395;53.204;6.502;2022-09-09T19:19:31;11.33;;;5.67;;
22455;SDS011;11395;53.204;6.502;2022-09-09T19:22:00;7.73;;;5.33;;
22455;SDS011;11395;53.204;6.502;2022-09-09T19:27:47;8.30;;;5.40;;
22455;SDS011;11395;53.204;6.502;2022-09-09T19:30:20;9.30;;;5.60;;
22455;SDS011;11395;53.204;6.502;2022-09-09T19:33:12;10.73;;;5.50;;
22455;SDS011;11395;53.204;6.502;2022-09-09T19:35:38;8.27;;;4.87;;
22455;SDS011;11395;53.204;6.502;2022-09-09T19:41:02;7.70;;;5.13;;
22455;SDS011;11395;53.204;6.502;2022-09-09T19:43:33;9.13;;;5.13;;
22455;SDS011;11395;53.204;6.502;2022-09-09T19:46:15;9.77;;;5.53;;
22455;SDS011;11395;53.204;6.502;2022-09-09T19:48:53;10.57;;;5.13;;
22455;SDS011;11395;53.204;6.502;2022-09-09T19:51:29;8.87;;;5.53;;
22455;SDS011;11395;53.204;6.502;2022-09-09T19:54:21;6.40;;;4.27;;
22455;SDS011;11395;53.204;6.502;2022-09-09T19:56:47;9.43;;;5.17;;
22455;SDS011;11395;53.204;6.502;2022-09-09T19:59:17;8.70;;;4.87;;
22455;SDS011;11395;53.204;6.502;2022-09-09T20:10:54;6.60;;;4.93;;
22455;SDS011;11395;53.204;6.502;2022-09-09T20:14:01;6.93;;;4.23;;
22455;SDS011;11395;53.204;6.502;2022-09-09T20:16:34;7.57;;;4.43;;
22455;SDS011;11395;53.204;6.502;2022-09-09T20:19:07;7.73;;;4.90;;
22455;SDS011;11395;53.204;6.502;2022-09-09T20:21:39;7.90;;;4.23;;
22455;SDS011;11395;53.204;6.502;2022-09-09T20:24:15;9.17;;;4.80;;
22455;SDS011;11395;53.204;6.502;2022-09-09T20:26:44;9.40;;;4.60;;
22455;SDS011;11395;53.204;6.502;2022-09-09T20:29:17;7.27;;;4.53;;
22455;SDS011;11395;53.204;6.502;2022-09-09T20:31:50;6.80;;;4.10;;
22455;SDS011;11395;53.204;6.502;2022-09-09T20:34:19;6.67;;;4.33;;
22455;SDS011;11395;53.204;6.502;2022-09-09T20:36:49;7.20;;;4.03;;
22455;SDS011;11395;53.204;6.502;2022-09-09T21:19:28;5.50;;;3.83;;
22455;SDS011;11395;53.204;6.502;2022-09-09T21:22:02;4.83;;;3.27;;
22455;SDS011;11395;53.204;6.502;2022-09-09T21:24:32;6.63;;;3.97;;
22455;SDS011;11395;53.204;6.502;2022-09-09T21:27:09;8.10;;;3.90;;
22455;SDS011;11395;53.204;6.502;2022-09-09T21:29:41;7.10;;;3.93;;
22455;SDS011;11395;53.204;6.502;2022-09-09T21:32:20;7.00;;;4.07;;
22455;SDS011;11395;53.204;6.502;2022-09-09T21:34:58;5.93;;;3.77;;
22455;SDS011;11395;53.204;6.502;2022-09-09T21:40:16;7.43;;;3.30;;
22455;SDS011;11395;53.204;6.502;2022-09-09T21:42:48;6.40;;;3.77;;
22455;SDS011;11395;53.204;6.502;2022-09-09T21:45:20;7.53;;;3.80;;
22455;SDS011;11395;53.204;6.502;2022-09-09T21:47:54;5.53;;;3.70;;
22455;SDS011;11395;53.204;6.502;2022-09-09T21:50:49;5.03;;;3.73;;
22455;SDS011;11395;53.204;6.502;2022-09-09T21:53:53;4.73;;;3.60;;
22455;SDS011;11395;53.204;6.502;2022-09-09T21:56:31;6.47;;;3.77;;
22455;SDS011;11395;53.204;6.502;2022-09-09T21:59:01;7.30;;;3.83;;
22455;SDS011;11395;53.204;6.502;2022-09-09T22:01:41;5.93;;;3.80;;
22455;SDS011;11395;53.204;6.502;2022-09-09T22:07:24;6.23;;;3.87;;
22455;SDS011;11395;53.204;6.502;2022-09-09T22:12:48;5.60;;;3.40;;
22455;SDS011;11395;53.204;6.502;2022-09-09T22:15:16;5.63;;;3.60;;
22455;SDS011;11395;53.204;6.502;2022-09-09T22:17:43;5.30;;;3.60;;
22455;SDS011;11395;53.204;6.502;2022-09-09T22:20:09;5.67;;;3.50;;
22455;SDS011;11395;53.204;6.502;2022-09-09T22:22:37;5.63;;;3.60;;
22455;SDS011;11395;53.204;6.502;2022-09-09T22:25:04;4.17;;;3.30;;
22455;SDS011;11395;53.204;6.502;2022-09-09T22:27:32;5.13;;;3.60;;
22455;SDS011;11395;53.204;6.502;2022-09-09T22:29:58;4.13;;;3.60;;
22455;SDS011;11395;53.204;6.502;2022-09-09T22:32:24;4.70;;;3.50;;
22455;SDS011;11395;53.204;6.502;2022-09-09T22:34:51;5.83;;;3.77;;
22455;SDS011;11395;53.204;6.502;2022-09-09T22:37:18;4.27;;;3.47;;
22455;SDS011;11395;53.204;6.502;2022-09-09T22:39:44;6.27;;;3.83;;
22455;SDS011;11395;53.204;6.502;2022-09-09T22:42:10;7.43;;;4.63;;
22455;SDS011;11395;53.204;6.502;2022-09-09T22:44:37;6.93;;;4.30;;
22455;SDS011;11395;53.204;6.502;2022-09-09T22:47:05;7.17;;;3.97;;
22455;SDS011;11395;53.204;6.502;2022-09-09T22:49:35;5.83;;;3.77;;
22455;SDS011;11395;53.204;6.502;2022-09-09T22:52:04;4.43;;;3.87;;
22455;SDS011;11395;53.204;6.502;2022-09-09T22:54:33;6.13;;;3.53;;
22455;SDS011;11395;53.204;6.502;2022-09-09T22:56:59;4.77;;;3.60;;
22455;SDS011;11395;53.204;6.502;2022-09-09T22:59:26;7.53;;;3.80;;
22455;SDS011;11395;53.204;6.502;2022-09-09T23:05:32;5.37;;;3.47;;
22455;SDS011;11395;53.204;6.502;2022-09-09T23:07:59;5.70;;;3.27;;
22455;SDS011;11395;53.204;6.502;2022-09-09T23:10:26;5.17;;;3.60;;
22455;SDS011;11395;53.204;6.502;2022-09-09T23:12:56;4.37;;;3.30;;
22455;SDS011;11395;53.204;6.502;2022-09-09T23:15:23;4.20;;;3.33;;
22455;SDS011;11395;53.204;6.502;2022-09-09T23:17:49;6.23;;;3.83;;
22455;SDS011;11395;53.204;6.502;2022-09-09T23:20:19;5.93;;;3.03;;
22455;SDS011;11395;53.204;6.502;2022-09-09T23:22:50;5.70;;;3.37;;
22455;SDS011;11395;53.204;6.502;2022-09-09T23:25:19;3.73;;;3.20;;
22455;SDS011;11395;53.204;6.502;2022-09-09T23:27:45;4.70;;;3.23;;
22455;SDS011;11395;53.204;6.502;2022-09-09T23:30:13;5.67;;;3.17;;
22455;SDS011;11395;53.204;6.502;2022-09-09T23:32:39;4.30;;;3.50;;
22455;SDS011;11395;53.204;6.502;2022-09-09T23:35:06;7.53;;;3.67;;
22455;SDS011;11395;53.204;6.502;2022-09-09T23:37:33;4.27;;;3.07;;
22455;SDS011;11395;53.204;6.502;2022-09-09T23:40:00;4.07;;;3.50;;
22455;SDS011;11395;53.204;6.502;2022-09-09T23:42:26;3.97;;;3.50;;
22455;SDS011;11395;53.204;6.502;2022-09-09T23:44:54;4.63;;;3.67;;
22455;SDS011;11395;53.204;6.502;2022-09-09T23:47:24;4.27;;;3.20;;
22455;SDS011;11395;53.204;6.502;2022-09-09T23:49:53;4.27;;;3.00;;
22455;SDS011;11395;53.204;6.502;2022-09-09T23:52:29;6.30;;;3.73;;
22455;SDS011;11395;53.204;6.502;2022-09-09T23:54:58;5.97;;;3.97;;
22455;SDS011;11395;53.204;6.502;2022-09-09T23:57:25;4.30;;;3.27;;
22455;SDS011;11395;53.204;6.502;2022-09-09T23:59:53;4.77;;;3.33;;
